PORT of IERAPETRA

Land: Greece Land: Greece [GR]
Latitude / Longitude: 35.005° / 25.738° Toon op kaart
Lokale Tijd:  [UTC +3]
UN/LOCODE: GRIER

Recente Aankomst- en Vertrektijden


Scheepsnaam
Aankomst (UTC)
Aankomst (LT)
Vertrek (UTC)
Vertrek (LT)
Vessel Type: Passagiersboot  IFIGENEIA ANNA 2014-08-30 13:55:00 2014-08-30 16:55:00
Vessel Type: Passagiersboot  BALOS EXPRES 2014-08-30 06:04:00 2014-08-30 09:04:00 2014-08-30 08:10:00 2014-08-30 11:10:00
Vessel Type: Passagiersboot  IFIGENEIA ANNA 2014-08-29 15:24:00 2014-08-29 18:24:00 2014-08-30 07:35:00 2014-08-30 10:35:00
Vessel Type: Passagiersboot  BALOS EXPRES 2014-08-29 15:26:00 2014-08-29 18:26:00 2014-08-30 06:03:00 2014-08-30 09:03:00
Vessel Type: Passagiersboot  IFIGENEIA ANNA 2014-08-29 13:53:00 2014-08-29 16:53:00 2014-08-29 15:11:00 2014-08-29 18:11:00
Vessel Type: Passagiersboot  BALOS EXPRES 2014-08-29 07:24:00 2014-08-29 10:24:00 2014-08-29 08:11:00 2014-08-29 11:11:00
Vessel Type: Passagiersboot  IFIGENEIA ANNA 2014-08-28 15:23:00 2014-08-28 18:23:00 2014-08-29 07:55:00 2014-08-29 10:55:00
Vessel Type: Passagiersboot  BALOS EXPRES 2014-08-28 14:53:00 2014-08-28 17:53:00 2014-08-29 07:03:00 2014-08-29 10:03:00
Vessel Type: Passagiersboot  IFIGENEIA ANNA 2014-08-27 07:54:00 2014-08-27 10:54:00 2014-08-28 15:05:00 2014-08-28 18:05:00
Vessel Type: Passagiersboot  BALOS EXPRES 2014-08-28 12:23:00 2014-08-28 15:23:00 2014-08-28 14:35:00 2014-08-28 17:35:00

Verwachte aankomsten


Scheepsnaam
Scheduled Arrival (UTC)
Geplande Aankomst (lokale tijd)
Geschatte Aankomsttijd (UTC)
Geschatte Aankomsttijd (Lokaal)
Geen gegevens gevonden

Wind Forecast


    
Tijd (UTC)
Snelheid
Direction
Temperature
2014-08-31 03:00:00 17 knots 337° 26°C
2014-08-31 06:00:00 17 knots 340° 26°C
2014-08-31 09:00:00 17 knots 336° 26°C
2014-08-31 12:00:00 17 knots 332° 27°C
2014-08-31 15:00:00 17 knots 330° 27°C
2014-08-31 18:00:00 15 knots 330° 26°C
2014-08-31 21:00:00 15 knots 319° 25°C
2014-09-01 00:00:00 14 knots 312° 25°C
2014-09-01 03:00:00 13 knots 317° 25°C
2014-09-01 06:00:00 12 knots 318° 25°C
2014-09-01 09:00:00 11 knots 322° 26°C
2014-09-01 12:00:00 12 knots 321° 26°C
2014-09-01 15:00:00 11 knots 324° 25°C
2014-09-01 18:00:00 9 knots 302° 25°C
2014-09-01 21:00:00 7 knots 289° 25°C
2014-09-02 00:00:00 9 knots 269° 24°C
2014-09-02 03:00:00 10 knots 257° 24°C

NO_PHOTO

No Photos for this port. Be the first to upload one!